createdAt,value
2022-10-28T00:02:29.501Z,100.63
2022-10-28T00:05:11.716Z,100.32
2022-10-28T00:08:00.442Z,99.00
2022-10-28T00:10:42.849Z,99.65
2022-10-28T00:13:32.464Z,100.63
2022-10-28T00:16:24.727Z,102.80
2022-10-28T00:19:09.420Z,102.05
2022-10-28T00:21:58.334Z,101.03
2022-10-28T00:24:47.345Z,100.25
2022-10-28T00:27:35.812Z,98.30
2022-10-28T00:30:18.395Z,99.55
2022-10-28T00:33:06.704Z,99.82
2022-10-28T00:35:49.334Z,101.90
2022-10-28T00:38:39.699Z,101.15
2022-10-28T00:41:28.483Z,104.70
2022-10-28T00:44:48.445Z,101.03
2022-10-28T00:47:50.610Z,100.25
2022-10-28T00:50:41.806Z,101.30
2022-10-28T00:53:43.344Z,103.00
2022-10-28T00:56:35.457Z,101.07
2022-10-28T00:59:42.732Z,103.32
2022-10-28T01:02:31.845Z,105.05
2022-10-28T01:05:13.712Z,102.72
2022-10-28T01:08:07.418Z,102.00
2022-10-28T01:11:19.434Z,104.97
2022-10-28T01:14:33.454Z,103.13
2022-10-28T01:17:52.359Z,102.80
2022-10-28T01:21:28.331Z,105.20
2022-10-28T01:24:13.657Z,95.03
2022-10-28T01:27:22.423Z,99.95
2022-10-28T01:30:27.956Z,99.75
2022-10-28T01:33:24.469Z,101.68
2022-10-28T01:36:19.701Z,97.88
2022-10-28T01:39:01.437Z,102.43
2022-10-28T01:41:58.416Z,97.25
2022-10-28T01:45:07.738Z,96.97
2022-10-28T01:47:59.450Z,98.70
2022-10-28T01:51:03.700Z,100.57
2022-10-28T01:53:56.445Z,101.45
2022-10-28T01:56:53.324Z,107.57
2022-10-28T01:59:43.421Z,103.53
2022-10-28T02:02:33.450Z,103.38
2022-10-28T02:05:52.422Z,103.20
2022-10-28T02:08:46.695Z,101.60
2022-10-28T02:11:38.414Z,102.97
2022-10-28T02:14:40.128Z,101.20
2022-10-28T02:17:50.686Z,102.82
2022-10-28T02:20:57.401Z,103.15
2022-10-28T02:23:46.417Z,102.03
2022-10-28T02:26:29.707Z,100.43
2022-10-28T02:29:26.449Z,105.30
2022-10-28T02:32:15.752Z,98.90
2022-10-28T02:35:09.335Z,101.60
2022-10-28T02:37:55.706Z,103.00
2022-10-28T02:40:47.367Z,103.80
2022-10-28T02:43:32.690Z,105.05
2022-10-28T02:46:22.412Z,106.43
2022-10-28T02:49:11.667Z,106.72
2022-10-28T02:52:10.425Z,108.22
2022-10-28T02:55:09.419Z,109.97
2022-10-28T02:57:59.458Z,115.28
2022-10-28T03:00:41.872Z,115.38
2022-10-28T03:03:30.478Z,119.68
2022-10-28T03:06:12.706Z,123.28
2022-10-28T03:09:01.375Z,129.20
2022-10-28T03:11:43.676Z,133.05
2022-10-28T03:14:26.318Z,128.90
2022-10-28T03:17:14.737Z,134.65
2022-10-28T03:19:57.468Z,137.40
2022-10-28T03:22:39.785Z,139.20
2022-10-28T03:25:28.401Z,137.85
2022-10-28T03:28:10.574Z,142.15
2022-10-28T03:30:59.406Z,144.02
2022-10-28T03:33:48.325Z,133.77
2022-10-28T03:36:30.837Z,124.55
2022-10-28T03:39:19.422Z,118.78
2022-10-28T03:42:01.667Z,119.07
2022-10-28T03:44:50.347Z,114.80
2022-10-28T03:47:39.724Z,113.50
2022-10-28T03:50:27.688Z,112.47
2022-10-28T03:53:10.416Z,106.28
2022-10-28T03:55:57.178Z,108.03
2022-10-28T03:58:46.451Z,109.43
2022-10-28T04:01:28.687Z,105.00
2022-10-28T04:04:17.422Z,103.18
2022-10-28T04:06:59.615Z,104.18
2022-10-28T04:09:48.476Z,102.03
2022-10-28T04:12:36.695Z,98.03
2022-10-28T04:15:31.423Z,94.32
2022-10-28T04:18:20.677Z,93.43
2022-10-28T04:21:03.444Z,84.82
2022-10-28T04:23:45.594Z,84.07
2022-10-28T04:26:35.413Z,85.23
2022-10-28T04:29:23.693Z,82.35
2022-10-28T04:32:07.351Z,79.47
2022-10-28T04:34:55.733Z,80.35
2022-10-28T04:37:38.397Z,78.50
2022-10-28T04:40:20.654Z,81.53
2022-10-28T04:43:10.226Z,79.57
2022-10-28T04:45:52.687Z,77.75
2022-10-28T04:48:41.412Z,76.60
2022-10-28T04:51:30.329Z,74.30
2022-10-28T04:54:12.694Z,56.60
2022-10-28T04:57:03.405Z,53.22
2022-10-28T04:59:52.379Z,52.75
2022-10-28T05:02:34.905Z,51.00
2022-10-28T05:05:23.377Z,52.95
2022-10-28T05:08:12.399Z,49.58
2022-10-28T05:11:01.413Z,49.87
2022-10-28T05:13:43.850Z,47.88
2022-10-28T05:16:32.394Z,43.15
2022-10-28T05:19:21.389Z,37.22
2022-10-28T05:22:10.416Z,34.15
2022-10-28T05:25:14.255Z,33.70
2022-10-28T05:28:07.458Z,33.13
2022-10-28T05:30:56.453Z,33.10
2022-10-28T05:33:38.710Z,32.45
2022-10-28T05:36:27.334Z,33.40
2022-10-28T05:39:16.392Z,33.92
2022-10-28T05:41:58.831Z,31.17
2022-10-28T05:44:47.420Z,34.40
2022-10-28T05:47:39.245Z,37.10
2022-10-28T05:50:29.712Z,35.43
2022-10-28T05:53:12.770Z,36.22
2022-10-28T05:55:54.744Z,37.55
2022-10-28T05:58:43.497Z,33.25
2022-10-28T06:01:32.790Z,32.63
2022-10-28T06:04:14.479Z,28.80
2022-10-28T06:07:03.733Z,29.83
2022-10-28T06:09:46.394Z,32.00
2022-10-28T06:12:27.514Z,32.55
2022-10-28T06:15:16.936Z,32.55
2022-10-28T06:18:05.481Z,35.53
2022-10-28T06:20:48.894Z,34.10
2022-10-28T06:23:37.782Z,35.60
2022-10-28T06:26:26.900Z,33.65
2022-10-28T06:29:17.792Z,33.38
2022-10-28T06:32:06.795Z,34.30
2022-10-28T06:34:55.279Z,34.90
2022-10-28T06:37:37.881Z,33.63
2022-10-28T06:40:26.917Z,31.52
2022-10-28T06:43:12.135Z,33.20
2022-10-28T06:46:02.814Z,33.80
2022-10-28T06:48:46.742Z,34.45
2022-10-28T06:51:35.478Z,34.70
2022-10-28T06:54:17.731Z,35.80
2022-10-28T06:57:06.319Z,33.35
2022-10-28T06:59:50.937Z,34.08
2022-10-28T07:02:42.780Z,38.78
2022-10-28T07:05:28.720Z,36.72
2022-10-28T07:08:17.360Z,38.97
2022-10-28T07:11:14.463Z,38.13
2022-10-28T07:14:03.744Z,41.38
2022-10-28T07:16:52.440Z,48.05
2022-10-28T07:19:41.346Z,42.95
2022-10-28T07:22:30.439Z,45.58
2022-10-28T07:25:12.763Z,39.72
2022-10-28T07:28:01.454Z,44.70
2022-10-28T07:30:43.720Z,43.35
2022-10-28T07:33:32.369Z,41.80
2022-10-28T07:36:22.454Z,41.28
2022-10-28T07:39:11.357Z,37.53
2022-10-28T07:41:53.781Z,33.83
2022-10-28T07:44:42.493Z,31.38
2022-10-28T07:47:24.736Z,28.02
2022-10-28T07:50:14.517Z,23.95
2022-10-28T07:53:03.424Z,17.88
2022-10-28T07:55:52.423Z,18.23
2022-10-28T07:58:35.723Z,20.05
2022-10-28T08:01:26.496Z,22.83
2022-10-28T08:04:08.736Z,21.77
2022-10-28T08:06:57.423Z,21.60
2022-10-28T08:09:46.333Z,19.52
2022-10-28T08:12:36.419Z,18.52
2022-10-28T08:15:19.510Z,19.90
2022-10-28T08:18:08.420Z,19.77
2022-10-28T08:20:57.335Z,20.88
2022-10-28T08:23:46.405Z,19.15
2022-10-28T08:26:35.414Z,20.77
2022-10-28T08:29:29.876Z,21.50
2022-10-28T08:32:15.306Z,21.00
2022-10-28T08:35:04.389Z,21.55
2022-10-28T08:37:47.224Z,18.80
2022-10-28T08:40:47.442Z,18.90
2022-10-28T08:43:40.248Z,18.67
2022-10-28T08:46:59.472Z,18.33
2022-10-28T08:49:47.155Z,18.52
2022-10-28T08:52:51.634Z,18.67
2022-10-28T08:55:48.819Z,17.33
2022-10-28T08:58:42.403Z,17.08
2022-10-28T09:02:03.404Z,15.32
2022-10-28T09:04:54.321Z,15.10
2022-10-28T09:07:45.747Z,16.55
2022-10-28T09:10:54.418Z,16.23
2022-10-28T09:14:03.773Z,16.95
2022-10-28T09:16:58.433Z,15.75
2022-10-28T09:19:59.676Z,16.02
2022-10-28T09:22:48.408Z,16.40
2022-10-28T09:25:49.779Z,17.00
2022-10-28T09:29:05.459Z,19.50
2022-10-28T09:32:08.699Z,17.77
2022-10-28T09:35:09.341Z,16.73
2022-10-28T09:38:05.444Z,16.95
2022-10-28T09:41:00.860Z,16.75
2022-10-28T09:43:49.398Z,15.80
2022-10-28T09:46:39.844Z,17.27
2022-10-28T09:49:29.405Z,17.15
2022-10-28T09:52:21.239Z,17.90
2022-10-28T09:55:13.406Z,16.83
2022-10-28T09:58:02.424Z,17.55
2022-10-28T10:00:45.668Z,17.70
2022-10-28T10:03:34.734Z,17.83
2022-10-28T10:06:43.811Z,18.15
2022-10-28T10:09:36.447Z,17.90
2022-10-28T10:12:20.680Z,18.97
2022-10-28T10:15:13.395Z,20.27
2022-10-28T10:17:56.879Z,20.73
2022-10-28T10:20:59.325Z,22.55
2022-10-28T10:23:43.738Z,20.33
2022-10-28T10:26:32.406Z,20.90
2022-10-28T10:29:20.676Z,21.65
2022-10-28T10:32:33.335Z,20.90
2022-10-28T10:35:30.872Z,22.05
2022-10-28T10:38:24.284Z,21.42
2022-10-28T10:41:06.673Z,23.27
2022-10-28T10:43:55.329Z,21.27
2022-10-28T10:46:37.706Z,22.40
2022-10-28T10:49:27.296Z,22.33
2022-10-28T10:52:38.412Z,22.52
2022-10-28T10:55:48.683Z,21.83
2022-10-28T10:58:38.399Z,21.02
2022-10-28T11:01:31.346Z,22.08
2022-10-28T11:04:30.395Z,22.77
2022-10-28T11:07:23.320Z,22.25
2022-10-28T11:10:13.288Z,22.20
2022-10-28T11:13:12.416Z,23.63
2022-10-28T11:16:37.235Z,23.80
2022-10-28T11:19:44.331Z,23.60
2022-10-28T11:22:32.678Z,22.27
2022-10-28T11:25:43.321Z,23.52
2022-10-28T11:28:57.460Z,24.00
2022-10-28T11:32:01.699Z,23.30
2022-10-28T11:35:02.455Z,22.15
2022-10-28T11:38:14.045Z,24.80
2022-10-28T11:41:29.359Z,24.52
2022-10-28T11:44:45.599Z,23.70
2022-10-28T11:47:39.383Z,23.33
2022-10-28T11:51:09.389Z,25.05
2022-10-28T11:53:57.704Z,23.80
2022-10-28T11:57:13.408Z,24.58
2022-10-28T12:00:32.898Z,25.50
2022-10-28T12:03:42.389Z,24.58
2022-10-28T12:06:38.327Z,26.40
2022-10-28T12:09:36.668Z,25.45
2022-10-28T12:12:25.383Z,25.55
2022-10-28T12:15:47.299Z,26.10
2022-10-28T12:18:49.439Z,25.90
2022-10-28T12:21:39.768Z,26.27
2022-10-28T12:24:31.374Z,26.95
2022-10-28T12:27:36.737Z,27.42
2022-10-28T12:30:35.308Z,28.98
2022-10-28T12:33:37.460Z,26.88
2022-10-28T12:36:26.089Z,28.45
2022-10-28T12:39:42.332Z,25.98
2022-10-28T12:42:29.501Z,26.67
2022-10-28T12:45:22.320Z,28.70
2022-10-28T12:49:02.652Z,27.80
2022-10-28T12:51:48.329Z,30.70
2022-10-28T12:54:53.670Z,29.05
2022-10-28T12:57:39.320Z,26.88
2022-10-28T13:00:57.432Z,28.50
2022-10-28T13:03:47.376Z,29.75
2022-10-28T13:06:50.794Z,29.52
2022-10-28T13:09:45.392Z,30.92
2022-10-28T13:12:45.679Z,30.95
2022-10-28T13:15:34.393Z,29.50
2022-10-28T13:18:56.694Z,32.90
2022-10-28T13:21:51.428Z,30.67
2022-10-28T13:24:56.724Z,32.40
2022-10-28T13:27:45.369Z,31.00
2022-10-28T13:30:28.683Z,30.80
2022-10-28T13:33:29.312Z,31.92
2022-10-28T13:36:34.381Z,33.03
2022-10-28T13:39:33.395Z,31.50
2022-10-28T13:42:24.450Z,31.83
2022-10-28T13:45:13.386Z,35.17
2022-10-28T13:47:55.813Z,33.28
2022-10-28T13:50:45.332Z,33.50
2022-10-28T13:53:46.900Z,33.00
2022-10-28T13:56:35.422Z,33.28
2022-10-28T13:59:20.678Z,35.05
2022-10-28T14:02:33.235Z,32.05
2022-10-28T14:05:28.363Z,30.23
2022-10-28T14:08:35.400Z,33.63
2022-10-28T14:11:22.808Z,34.78
2022-10-28T14:14:12.372Z,32.17
2022-10-28T14:17:08.364Z,32.38
2022-10-28T14:19:53.310Z,32.70
2022-10-28T14:22:50.381Z,33.20
2022-10-28T14:25:53.288Z,37.30
2022-10-28T14:28:42.436Z,34.85
2022-10-28T14:31:42.307Z,37.35
2022-10-28T14:34:31.386Z,37.33
2022-10-28T14:37:50.897Z,37.05
2022-10-28T14:40:53.393Z,38.25
2022-10-28T14:44:04.480Z,37.75
2022-10-28T14:47:31.496Z,38.65
2022-10-28T14:50:35.675Z,37.35
2022-10-28T14:53:42.334Z,39.97
2022-10-28T14:56:30.580Z,36.72
2022-10-28T14:59:50.382Z,38.72
2022-10-28T15:02:41.767Z,37.03
2022-10-28T15:05:29.363Z,37.03
2022-10-28T15:08:12.706Z,35.92
2022-10-28T15:11:04.324Z,40.03
2022-10-28T15:13:53.050Z,36.92
2022-10-28T15:16:42.361Z,38.22
2022-10-28T15:19:34.400Z,37.88
2022-10-28T15:22:34.311Z,37.72
2022-10-28T15:25:26.316Z,37.88
2022-10-28T15:28:15.383Z,39.85
2022-10-28T15:31:05.645Z,36.83
2022-10-28T15:33:50.450Z,37.28
2022-10-28T15:36:39.939Z,39.53
2022-10-28T15:39:25.387Z,36.38
2022-10-28T15:42:32.243Z,38.13
2022-10-28T15:45:30.389Z,38.75
2022-10-28T15:48:22.412Z,38.42
2022-10-28T15:51:22.797Z,39.17
2022-10-28T15:54:26.342Z,38.85
2022-10-28T15:57:08.796Z,38.97
2022-10-28T15:59:57.404Z,39.92
2022-10-28T16:02:57.683Z,40.30
2022-10-28T16:05:52.363Z,38.75
2022-10-28T16:08:39.801Z,38.10
2022-10-28T16:11:28.382Z,40.22
2022-10-28T16:14:27.877Z,38.92
2022-10-28T16:17:31.392Z,38.95
2022-10-28T16:23:08.308Z,40.00
2022-10-28T16:25:50.741Z,40.28
2022-10-28T16:28:44.926Z,40.78
2022-10-28T16:31:30.764Z,40.35
2022-10-28T16:34:23.385Z,40.38
2022-10-28T16:37:05.709Z,40.83
2022-10-28T16:39:54.372Z,41.15
2022-10-28T16:42:36.655Z,42.72
2022-10-28T16:45:26.323Z,42.05
2022-10-28T16:48:08.654Z,41.28
2022-10-28T16:51:06.300Z,42.08
2022-10-28T16:53:57.383Z,41.83
2022-10-28T16:56:46.342Z,43.22
2022-10-28T16:59:35.378Z,44.80
2022-10-28T17:02:29.447Z,43.90
2022-10-28T17:05:18.436Z,45.17
2022-10-28T17:08:09.892Z,46.38
2022-10-28T17:10:53.471Z,43.10
2022-10-28T17:13:36.027Z,44.53
2022-10-28T17:16:25.322Z,42.80
2022-10-28T17:19:14.692Z,43.42
2022-10-28T17:21:57.368Z,43.25
2022-10-28T17:24:40.014Z,42.90
2022-10-28T17:27:30.363Z,45.00
2022-10-28T17:30:19.574Z,42.53
2022-10-28T17:33:09.294Z,43.00
2022-10-28T17:35:58.410Z,42.67
2022-10-28T17:38:40.810Z,41.85
2022-10-28T17:41:29.434Z,44.92
2022-10-28T17:44:14.230Z,44.70
2022-10-28T17:47:03.430Z,43.78
2022-10-28T17:49:45.667Z,44.65
2022-10-28T17:52:38.277Z,45.15
2022-10-28T17:55:20.681Z,44.45
2022-10-28T17:58:09.371Z,43.60
2022-10-28T18:00:51.654Z,44.42
2022-10-28T18:03:42.414Z,46.50
2022-10-28T18:06:31.356Z,46.13
2022-10-28T18:09:14.398Z,46.53
2022-10-28T18:12:04.279Z,47.05
2022-10-28T18:14:47.478Z,47.28
2022-10-28T18:17:36.298Z,46.33
2022-10-28T18:20:25.464Z,46.80
2022-10-28T18:23:07.378Z,46.75
2022-10-28T18:26:02.310Z,46.40
2022-10-28T18:28:54.403Z,47.03
2022-10-28T18:31:38.312Z,46.67
2022-10-28T18:34:29.414Z,48.42
2022-10-28T18:37:19.380Z,46.10
2022-10-28T18:40:10.012Z,47.65
2022-10-28T18:42:55.258Z,48.10
2022-10-28T18:45:45.115Z,45.30
2022-10-28T18:48:27.624Z,48.00
2022-10-28T18:51:19.386Z,49.03
2022-10-28T18:54:02.139Z,48.63
2022-10-28T18:56:53.689Z,49.55
2022-10-28T19:00:16.924Z,47.72
2022-10-28T19:02:48.129Z,46.88
2022-10-28T19:05:37.352Z,49.05
2022-10-28T19:08:19.792Z,48.60
2022-10-28T19:11:10.323Z,49.55
2022-10-28T19:13:53.380Z,48.80
2022-10-28T19:16:43.373Z,50.80
2022-10-28T19:19:25.796Z,49.25
2022-10-28T19:22:16.455Z,50.22
2022-10-28T19:24:58.734Z,49.65
2022-10-28T19:27:47.292Z,50.95
2022-10-28T19:30:36.398Z,50.17
2022-10-28T19:33:26.701Z,50.00
2022-10-28T19:36:10.357Z,50.50
2022-10-28T19:39:07.344Z,51.97
2022-10-28T19:41:57.440Z,51.15
2022-10-28T19:44:39.643Z,50.08
2022-10-28T19:47:28.354Z,50.10
2022-10-28T19:50:10.785Z,51.72
2022-10-28T19:52:59.360Z,52.10
2022-10-28T19:55:41.659Z,51.20
2022-10-28T19:58:30.249Z,51.05
2022-10-28T20:01:22.385Z,51.92
2022-10-28T20:04:12.642Z,51.50
2022-10-28T20:06:54.270Z,53.38
2022-10-28T20:09:43.615Z,52.10
2022-10-28T20:12:26.327Z,51.70
2022-10-28T20:15:15.269Z,51.92
2022-10-28T20:18:03.638Z,52.30
2022-10-28T20:20:45.338Z,51.20
2022-10-28T20:23:34.183Z,52.42
2022-10-28T20:26:17.333Z,54.60
2022-10-28T20:29:14.330Z,53.95
2022-10-28T20:32:03.276Z,51.88
2022-10-28T20:34:45.655Z,51.00
2022-10-28T20:37:34.242Z,52.97
2022-10-28T20:40:17.612Z,50.40
2022-10-28T20:43:06.330Z,52.30
2022-10-28T20:45:48.602Z,51.53
2022-10-28T20:48:38.413Z,51.58
2022-10-28T20:51:20.655Z,51.92
2022-10-28T20:54:09.347Z,51.85
2022-10-28T20:56:51.644Z,51.33
2022-10-28T20:59:40.352Z,49.90
2022-10-28T21:02:22.719Z,51.95
2022-10-28T21:05:11.343Z,51.95
2022-10-28T21:07:53.893Z,51.55
2022-10-28T21:10:43.275Z,55.50
2022-10-28T21:13:33.412Z,51.55
2022-10-28T21:16:28.195Z,54.22
2022-10-28T21:19:17.260Z,51.22
2022-10-28T21:21:59.737Z,50.33
2022-10-28T21:24:48.372Z,52.53
2022-10-28T21:27:37.324Z,51.58
2022-10-28T21:30:26.693Z,52.20
2022-10-28T21:33:11.348Z,53.85
2022-10-28T21:36:00.938Z,51.38
2022-10-28T21:38:50.250Z,53.95
2022-10-28T21:41:39.224Z,54.15
2022-10-28T21:44:28.237Z,51.35
2022-10-28T21:47:10.562Z,52.53
2022-10-28T21:49:59.394Z,56.28
2022-10-28T21:52:47.701Z,53.90
2022-10-28T21:55:42.054Z,52.47
2022-10-28T21:58:28.480Z,52.35
2022-10-28T22:01:23.483Z,51.17
2022-10-28T22:04:12.242Z,51.28
2022-10-28T22:07:01.327Z,52.28
2022-10-28T22:09:50.223Z,55.28
2022-10-28T22:12:39.367Z,54.63
2022-10-28T22:15:21.531Z,54.08
2022-10-28T22:18:10.333Z,51.65
2022-10-28T22:20:59.207Z,51.13
2022-10-28T22:23:48.327Z,52.60
2022-10-28T22:26:38.244Z,52.78
2022-10-28T22:29:27.253Z,52.75
2022-10-28T22:32:15.604Z,52.88
2022-10-28T22:34:58.311Z,52.72
2022-10-28T22:37:53.594Z,52.83
2022-10-28T22:40:42.300Z,52.63
2022-10-28T22:43:31.370Z,54.80
2022-10-28T22:46:20.692Z,53.22
2022-10-28T22:49:03.328Z,56.35
2022-10-28T22:51:45.563Z,56.08
2022-10-28T22:54:34.310Z,56.67
2022-10-28T22:57:16.512Z,57.25
2022-10-28T23:00:05.407Z,56.83
2022-10-28T23:02:53.964Z,58.50
2022-10-28T23:05:37.247Z,59.25
2022-10-28T23:08:25.641Z,56.28
2022-10-28T23:11:08.312Z,56.05
2022-10-28T23:14:02.217Z,58.10
2022-10-28T23:16:57.252Z,56.97
2022-10-28T23:19:45.638Z,56.72
2022-10-28T23:22:27.303Z,57.20
2022-10-28T23:25:10.123Z,59.58
2022-10-28T23:27:59.303Z,58.55
2022-10-28T23:30:41.522Z,59.22
2022-10-28T23:33:30.313Z,58.60
2022-10-28T23:36:21.225Z,63.70
2022-10-28T23:39:11.213Z,66.88
2022-10-28T23:41:53.520Z,70.80
2022-10-28T23:44:42.318Z,71.75
2022-10-28T23:47:31.241Z,72.90
2022-10-28T23:50:22.317Z,75.68
2022-10-28T23:53:11.287Z,78.32
2022-10-28T23:55:55.735Z,80.45
2022-10-28T23:58:45.656Z,80.85
